sensor_id;sensor_type;location;lat;lon;timestamp;P1;durP1;ratioP1;P2;durP2;ratioP2
53010;SDS011;42803;55.762;38.084;2022-11-20T00:02:07;11.15;;;5.28;;
53010;SDS011;42803;55.762;38.084;2022-11-20T00:04:36;11.00;;;4.30;;
53010;SDS011;42803;55.762;38.084;2022-11-20T00:07:06;10.38;;;5.30;;
53010;SDS011;42803;55.762;38.084;2022-11-20T00:09:37;7.57;;;4.95;;
53010;SDS011;42803;55.762;38.084;2022-11-20T00:12:06;10.27;;;4.43;;
53010;SDS011;42803;55.762;38.084;2022-11-20T00:14:35;10.13;;;4.90;;
53010;SDS011;42803;55.762;38.084;2022-11-20T00:17:04;10.98;;;5.60;;
53010;SDS011;42803;55.762;38.084;2022-11-20T00:19:33;12.68;;;6.30;;
53010;SDS011;42803;55.762;38.084;2022-11-20T00:22:02;9.27;;;5.53;;
53010;SDS011;42803;55.762;38.084;2022-11-20T00:24:30;9.73;;;4.60;;
53010;SDS011;42803;55.762;38.084;2022-11-20T00:27:04;9.48;;;4.97;;
53010;SDS011;42803;55.762;38.084;2022-11-20T00:29:33;14.70;;;5.63;;
53010;SDS011;42803;55.762;38.084;2022-11-20T00:32:02;13.63;;;6.15;;
53010;SDS011;42803;55.762;38.084;2022-11-20T00:34:31;11.13;;;5.38;;
53010;SDS011;42803;55.762;38.084;2022-11-20T00:37:00;9.38;;;5.85;;
53010;SDS011;42803;55.762;38.084;2022-11-20T00:39:29;13.05;;;6.85;;
53010;SDS011;42803;55.762;38.084;2022-11-20T00:41:57;9.48;;;5.05;;
53010;SDS011;42803;55.762;38.084;2022-11-20T00:44:28;11.25;;;5.50;;
53010;SDS011;42803;55.762;38.084;2022-11-20T00:46:57;12.13;;;6.28;;
53010;SDS011;42803;55.762;38.084;2022-11-20T00:49:26;9.35;;;5.45;;
53010;SDS011;42803;55.762;38.084;2022-11-20T00:51:55;12.68;;;5.43;;
53010;SDS011;42803;55.762;38.084;2022-11-20T00:54:23;9.38;;;4.75;;
53010;SDS011;42803;55.762;38.084;2022-11-20T00:56:52;12.55;;;3.92;;
53010;SDS011;42803;55.762;38.084;2022-11-20T00:59:21;10.43;;;5.35;;
53010;SDS011;42803;55.762;38.084;2022-11-20T01:01:52;10.07;;;4.70;;
53010;SDS011;42803;55.762;38.084;2022-11-20T01:04:20;11.80;;;5.30;;
53010;SDS011;42803;55.762;38.084;2022-11-20T01:06:49;10.40;;;5.07;;
53010;SDS011;42803;55.762;38.084;2022-11-20T01:09:18;13.15;;;5.70;;
53010;SDS011;42803;55.762;38.084;2022-11-20T01:11:48;12.43;;;5.35;;
53010;SDS011;42803;55.762;38.084;2022-11-20T01:14:18;13.85;;;5.95;;
53010;SDS011;42803;55.762;38.084;2022-11-20T01:16:48;8.90;;;5.15;;
53010;SDS011;42803;55.762;38.084;2022-11-20T01:19:20;11.55;;;5.95;;
53010;SDS011;42803;55.762;38.084;2022-11-20T01:21:52;13.52;;;5.95;;
53010;SDS011;42803;55.762;38.084;2022-11-20T01:24:22;11.70;;;5.07;;
53010;SDS011;42803;55.762;38.084;2022-11-20T01:26:51;13.45;;;5.15;;
53010;SDS011;42803;55.762;38.084;2022-11-20T01:29:21;9.07;;;4.70;;
53010;SDS011;42803;55.762;38.084;2022-11-20T01:31:51;11.13;;;4.90;;
53010;SDS011;42803;55.762;38.084;2022-11-20T01:34:22;12.10;;;6.43;;
53010;SDS011;42803;55.762;38.084;2022-11-20T01:36:52;9.57;;;5.13;;
53010;SDS011;42803;55.762;38.084;2022-11-20T01:39:22;10.23;;;5.45;;
53010;SDS011;42803;55.762;38.084;2022-11-20T01:41:52;10.75;;;4.50;;
53010;SDS011;42803;55.762;38.084;2022-11-20T01:44:43;11.75;;;5.47;;
53010;SDS011;42803;55.762;38.084;2022-11-20T01:47:17;11.45;;;5.35;;
53010;SDS011;42803;55.762;38.084;2022-11-20T01:49:54;11.20;;;4.78;;
53010;SDS011;42803;55.762;38.084;2022-11-20T01:52:30;7.75;;;4.47;;
53010;SDS011;42803;55.762;38.084;2022-11-20T01:55:06;8.13;;;4.50;;
53010;SDS011;42803;55.762;38.084;2022-11-20T01:57:38;15.48;;;6.30;;
53010;SDS011;42803;55.762;38.084;2022-11-20T02:00:09;10.45;;;4.55;;
53010;SDS011;42803;55.762;38.084;2022-11-20T02:02:40;12.25;;;6.05;;
53010;SDS011;42803;55.762;38.084;2022-11-20T02:05:16;10.80;;;5.78;;
53010;SDS011;42803;55.762;38.084;2022-11-20T02:07:51;10.23;;;5.35;;
53010;SDS011;42803;55.762;38.084;2022-11-20T02:10:22;11.80;;;5.65;;
53010;SDS011;42803;55.762;38.084;2022-11-20T02:12:51;14.07;;;6.07;;
53010;SDS011;42803;55.762;38.084;2022-11-20T02:15:38;11.73;;;5.95;;
53010;SDS011;42803;55.762;38.084;2022-11-20T02:18:08;13.02;;;4.70;;
53010;SDS011;42803;55.762;38.084;2022-11-20T02:20:39;12.85;;;6.07;;
53010;SDS011;42803;55.762;38.084;2022-11-20T02:23:11;10.23;;;4.47;;
53010;SDS011;42803;55.762;38.084;2022-11-20T02:25:45;16.30;;;5.43;;
53010;SDS011;42803;55.762;38.084;2022-11-20T02:28:16;9.70;;;5.05;;
53010;SDS011;42803;55.762;38.084;2022-11-20T02:30:45;13.15;;;5.35;;
53010;SDS011;42803;55.762;38.084;2022-11-20T02:33:14;8.98;;;4.82;;
53010;SDS011;42803;55.762;38.084;2022-11-20T02:35:44;11.77;;;5.47;;
53010;SDS011;42803;55.762;38.084;2022-11-20T02:38:14;9.25;;;4.65;;
53010;SDS011;42803;55.762;38.084;2022-11-20T02:40:45;12.07;;;4.25;;
53010;SDS011;42803;55.762;38.084;2022-11-20T02:43:21;8.20;;;5.45;;
53010;SDS011;42803;55.762;38.084;2022-11-20T02:45:50;14.10;;;5.30;;
53010;SDS011;42803;55.762;38.084;2022-11-20T02:48:19;11.38;;;4.93;;
53010;SDS011;42803;55.762;38.084;2022-11-20T02:50:51;7.10;;;4.47;;
53010;SDS011;42803;55.762;38.084;2022-11-20T02:53:20;10.75;;;4.95;;
53010;SDS011;42803;55.762;38.084;2022-11-20T02:55:50;11.80;;;5.13;;
53010;SDS011;42803;55.762;38.084;2022-11-20T02:58:20;12.18;;;4.93;;
53010;SDS011;42803;55.762;38.084;2022-11-20T03:00:50;10.85;;;5.13;;
53010;SDS011;42803;55.762;38.084;2022-11-20T03:03:20;9.68;;;4.35;;
53010;SDS011;42803;55.762;38.084;2022-11-20T03:05:49;11.60;;;5.72;;
53010;SDS011;42803;55.762;38.084;2022-11-20T03:08:18;11.60;;;5.35;;
53010;SDS011;42803;55.762;38.084;2022-11-20T03:10:47;9.65;;;4.10;;
53010;SDS011;42803;55.762;38.084;2022-11-20T03:13:17;9.18;;;5.35;;
53010;SDS011;42803;55.762;38.084;2022-11-20T03:15:46;8.85;;;6.30;;
53010;SDS011;42803;55.762;38.084;2022-11-20T03:18:15;12.95;;;5.35;;
53010;SDS011;42803;55.762;38.084;2022-11-20T03:20:44;12.52;;;6.03;;
53010;SDS011;42803;55.762;38.084;2022-11-20T03:23:13;12.57;;;5.40;;
53010;SDS011;42803;55.762;38.084;2022-11-20T03:25:43;10.70;;;5.57;;
53010;SDS011;42803;55.762;38.084;2022-11-20T03:28:12;13.65;;;5.22;;
53010;SDS011;42803;55.762;38.084;2022-11-20T03:30:42;11.55;;;4.90;;
53010;SDS011;42803;55.762;38.084;2022-11-20T03:33:11;11.38;;;5.38;;
53010;SDS011;42803;55.762;38.084;2022-11-20T03:35:40;9.95;;;4.00;;
53010;SDS011;42803;55.762;38.084;2022-11-20T03:38:09;10.18;;;5.03;;
53010;SDS011;42803;55.762;38.084;2022-11-20T03:40:38;12.23;;;6.35;;
53010;SDS011;42803;55.762;38.084;2022-11-20T03:43:09;10.50;;;5.43;;
53010;SDS011;42803;55.762;38.084;2022-11-20T03:45:38;11.52;;;4.97;;
53010;SDS011;42803;55.762;38.084;2022-11-20T03:48:08;13.60;;;5.80;;
53010;SDS011;42803;55.762;38.084;2022-11-20T03:50:37;15.70;;;6.90;;
53010;SDS011;42803;55.762;38.084;2022-11-20T03:53:06;9.27;;;5.32;;
53010;SDS011;42803;55.762;38.084;2022-11-20T03:55:35;13.48;;;5.82;;
53010;SDS011;42803;55.762;38.084;2022-11-20T03:58:04;13.85;;;6.25;;
53010;SDS011;42803;55.762;38.084;2022-11-20T04:00:33;13.75;;;7.03;;
53010;SDS011;42803;55.762;38.084;2022-11-20T04:03:03;12.80;;;5.20;;
53010;SDS011;42803;55.762;38.084;2022-11-20T04:05:34;11.57;;;5.93;;
53010;SDS011;42803;55.762;38.084;2022-11-20T04:08:03;11.35;;;5.32;;
53010;SDS011;42803;55.762;38.084;2022-11-20T04:10:32;14.95;;;5.63;;
53010;SDS011;42803;55.762;38.084;2022-11-20T04:13:01;12.63;;;4.85;;
53010;SDS011;42803;55.762;38.084;2022-11-20T04:15:30;12.02;;;6.25;;
53010;SDS011;42803;55.762;38.084;2022-11-20T04:18:04;9.63;;;4.23;;
53010;SDS011;42803;55.762;38.084;2022-11-20T04:20:35;10.88;;;5.85;;
53010;SDS011;42803;55.762;38.084;2022-11-20T04:23:04;11.32;;;5.50;;
53010;SDS011;42803;55.762;38.084;2022-11-20T04:25:33;10.93;;;5.45;;
53010;SDS011;42803;55.762;38.084;2022-11-20T04:28:02;9.90;;;5.18;;
53010;SDS011;42803;55.762;38.084;2022-11-20T04:30:31;9.35;;;4.45;;
53010;SDS011;42803;55.762;38.084;2022-11-20T04:32:59;9.35;;;5.28;;
53010;SDS011;42803;55.762;38.084;2022-11-20T04:35:28;8.77;;;4.85;;
53010;SDS011;42803;55.762;38.084;2022-11-20T04:37:59;12.85;;;5.85;;
53010;SDS011;42803;55.762;38.084;2022-11-20T04:40:28;12.80;;;5.78;;
53010;SDS011;42803;55.762;38.084;2022-11-20T04:42:57;9.75;;;5.38;;
53010;SDS011;42803;55.762;38.084;2022-11-20T04:45:26;9.57;;;4.82;;
53010;SDS011;42803;55.762;38.084;2022-11-20T04:47:55;11.15;;;5.97;;
53010;SDS011;42803;55.762;38.084;2022-11-20T04:50:24;10.77;;;4.90;;
53010;SDS011;42803;55.762;38.084;2022-11-20T04:52:53;13.00;;;4.53;;
53010;SDS011;42803;55.762;38.084;2022-11-20T04:55:24;7.65;;;4.50;;
53010;SDS011;42803;55.762;38.084;2022-11-20T04:57:53;9.95;;;5.10;;
53010;SDS011;42803;55.762;38.084;2022-11-20T05:00:22;10.52;;;5.43;;
53010;SDS011;42803;55.762;38.084;2022-11-20T05:02:51;12.73;;;4.80;;
53010;SDS011;42803;55.762;38.084;2022-11-20T05:05:20;7.97;;;4.30;;
53010;SDS011;42803;55.762;38.084;2022-11-20T05:07:49;8.73;;;4.65;;
53010;SDS011;42803;55.762;38.084;2022-11-20T05:10:18;11.13;;;5.15;;
53010;SDS011;42803;55.762;38.084;2022-11-20T05:12:48;12.30;;;5.03;;
53010;SDS011;42803;55.762;38.084;2022-11-20T05:15:17;12.05;;;5.10;;
53010;SDS011;42803;55.762;38.084;2022-11-20T05:17:47;11.05;;;5.60;;
53010;SDS011;42803;55.762;38.084;2022-11-20T05:20:16;10.65;;;5.10;;
53010;SDS011;42803;55.762;38.084;2022-11-20T05:22:45;11.82;;;5.45;;
53010;SDS011;42803;55.762;38.084;2022-11-20T05:25:14;12.13;;;5.90;;
53010;SDS011;42803;55.762;38.084;2022-11-20T05:27:43;10.15;;;4.72;;
53010;SDS011;42803;55.762;38.084;2022-11-20T05:30:14;8.93;;;5.15;;
53010;SDS011;42803;55.762;38.084;2022-11-20T05:32:43;8.48;;;5.28;;
53010;SDS011;42803;55.762;38.084;2022-11-20T05:35:12;12.07;;;6.25;;
53010;SDS011;42803;55.762;38.084;2022-11-20T05:37:41;10.65;;;4.93;;
53010;SDS011;42803;55.762;38.084;2022-11-20T05:40:11;11.57;;;5.32;;
53010;SDS011;42803;55.762;38.084;2022-11-20T05:42:40;11.52;;;5.35;;
53010;SDS011;42803;55.762;38.084;2022-11-20T05:45:10;9.43;;;5.15;;
53010;SDS011;42803;55.762;38.084;2022-11-20T05:47:41;12.00;;;6.32;;
53010;SDS011;42803;55.762;38.084;2022-11-20T05:50:10;12.10;;;6.60;;
53010;SDS011;42803;55.762;38.084;2022-11-20T05:52:39;8.68;;;4.75;;
53010;SDS011;42803;55.762;38.084;2022-11-20T05:55:08;13.02;;;5.57;;
53010;SDS011;42803;55.762;38.084;2022-11-20T05:57:37;15.20;;;6.13;;
53010;SDS011;42803;55.762;38.084;2022-11-20T06:00:07;10.50;;;5.50;;
53010;SDS011;42803;55.762;38.084;2022-11-20T06:02:36;14.55;;;6.18;;
53010;SDS011;42803;55.762;38.084;2022-11-20T06:05:07;11.98;;;6.18;;
53010;SDS011;42803;55.762;38.084;2022-11-20T06:07:36;12.93;;;6.07;;
53010;SDS011;42803;55.762;38.084;2022-11-20T06:10:06;11.60;;;5.93;;
53010;SDS011;42803;55.762;38.084;2022-11-20T06:12:35;14.82;;;6.60;;
53010;SDS011;42803;55.762;38.084;2022-11-20T06:15:04;10.27;;;5.90;;
53010;SDS011;42803;55.762;38.084;2022-11-20T06:17:34;11.55;;;6.00;;
53010;SDS011;42803;55.762;38.084;2022-11-20T06:20:03;14.25;;;6.03;;
53010;SDS011;42803;55.762;38.084;2022-11-20T06:22:34;14.45;;;7.38;;
53010;SDS011;42803;55.762;38.084;2022-11-20T06:25:03;13.02;;;6.68;;
53010;SDS011;42803;55.762;38.084;2022-11-20T06:27:33;13.88;;;6.30;;
53010;SDS011;42803;55.762;38.084;2022-11-20T06:30:02;14.52;;;6.95;;
53010;SDS011;42803;55.762;38.084;2022-11-20T06:32:32;11.13;;;5.70;;
53010;SDS011;42803;55.762;38.084;2022-11-20T06:35:01;13.48;;;6.57;;
53010;SDS011;42803;55.762;38.084;2022-11-20T06:37:30;16.23;;;6.03;;
53010;SDS011;42803;55.762;38.084;2022-11-20T06:40:01;14.73;;;6.18;;
53010;SDS011;42803;55.762;38.084;2022-11-20T06:42:30;12.75;;;6.53;;
53010;SDS011;42803;55.762;38.084;2022-11-20T06:45:00;10.90;;;5.35;;
53010;SDS011;42803;55.762;38.084;2022-11-20T06:47:30;14.48;;;6.47;;
53010;SDS011;42803;55.762;38.084;2022-11-20T06:49:59;15.40;;;6.55;;
53010;SDS011;42803;55.762;38.084;2022-11-20T06:52:29;14.02;;;6.70;;
53010;SDS011;42803;55.762;38.084;2022-11-20T06:54:58;12.15;;;5.82;;
53010;SDS011;42803;55.762;38.084;2022-11-20T06:57:29;12.48;;;6.15;;
53010;SDS011;42803;55.762;38.084;2022-11-20T06:59:58;11.25;;;6.10;;
53010;SDS011;42803;55.762;38.084;2022-11-20T07:02:28;14.52;;;5.47;;
53010;SDS011;42803;55.762;38.084;2022-11-20T07:04:57;14.23;;;6.03;;
53010;SDS011;42803;55.762;38.084;2022-11-20T07:07:26;16.30;;;6.45;;
53010;SDS011;42803;55.762;38.084;2022-11-20T07:09:56;12.48;;;5.43;;
53010;SDS011;42803;55.762;38.084;2022-11-20T07:12:25;13.60;;;6.47;;
53010;SDS011;42803;55.762;38.084;2022-11-20T07:14:56;10.10;;;5.63;;
53010;SDS011;42803;55.762;38.084;2022-11-20T07:17:26;11.45;;;6.07;;
53010;SDS011;42803;55.762;38.084;2022-11-20T07:19:55;11.48;;;6.10;;
53010;SDS011;42803;55.762;38.084;2022-11-20T07:22:24;10.68;;;6.43;;
53010;SDS011;42803;55.762;38.084;2022-11-20T07:24:54;11.60;;;5.70;;
53010;SDS011;42803;55.762;38.084;2022-11-20T07:27:23;12.88;;;6.32;;
53010;SDS011;42803;55.762;38.084;2022-11-20T07:29:52;13.77;;;5.95;;
53010;SDS011;42803;55.762;38.084;2022-11-20T07:32:23;14.02;;;5.28;;
53010;SDS011;42803;55.762;38.084;2022-11-20T07:34:52;10.77;;;5.80;;
53010;SDS011;42803;55.762;38.084;2022-11-20T07:37:21;10.80;;;5.55;;
53010;SDS011;42803;55.762;38.084;2022-11-20T07:39:50;15.90;;;6.78;;
53010;SDS011;42803;55.762;38.084;2022-11-20T07:42:19;12.60;;;6.50;;
53010;SDS011;42803;55.762;38.084;2022-11-20T07:44:50;19.17;;;5.78;;
53010;SDS011;42803;55.762;38.084;2022-11-20T07:47:19;16.60;;;7.78;;
53010;SDS011;42803;55.762;38.084;2022-11-20T07:49:50;13.02;;;6.15;;
53010;SDS011;42803;55.762;38.084;2022-11-20T07:52:20;10.95;;;5.55;;
53010;SDS011;42803;55.762;38.084;2022-11-20T07:54:49;13.63;;;6.78;;
53010;SDS011;42803;55.762;38.084;2022-11-20T07:57:18;11.00;;;5.85;;
53010;SDS011;42803;55.762;38.084;2022-11-20T07:59:54;10.02;;;5.00;;
53010;SDS011;42803;55.762;38.084;2022-11-20T08:02:23;14.65;;;5.88;;
53010;SDS011;42803;55.762;38.084;2022-11-20T08:04:54;12.20;;;6.22;;
53010;SDS011;42803;55.762;38.084;2022-11-20T08:07:23;12.10;;;5.93;;
53010;SDS011;42803;55.762;38.084;2022-11-20T08:09:52;17.08;;;6.50;;
53010;SDS011;42803;55.762;38.084;2022-11-20T08:12:21;13.93;;;6.40;;
53010;SDS011;42803;55.762;38.084;2022-11-20T08:15:08;8.90;;;4.95;;
53010;SDS011;42803;55.762;38.084;2022-11-20T08:17:39;9.35;;;5.43;;
53010;SDS011;42803;55.762;38.084;2022-11-20T08:20:24;11.73;;;6.00;;
53010;SDS011;42803;55.762;38.084;2022-11-20T08:22:57;14.27;;;6.35;;
53010;SDS011;42803;55.762;38.084;2022-11-20T08:25:27;14.10;;;6.85;;
53010;SDS011;42803;55.762;38.084;2022-11-20T08:27:57;13.48;;;6.65;;
53010;SDS011;42803;55.762;38.084;2022-11-20T08:30:36;10.50;;;5.65;;
53010;SDS011;42803;55.762;38.084;2022-11-20T08:33:07;13.38;;;6.40;;
53010;SDS011;42803;55.762;38.084;2022-11-20T08:35:39;14.32;;;6.15;;
53010;SDS011;42803;55.762;38.084;2022-11-20T08:38:08;11.98;;;5.90;;
53010;SDS011;42803;55.762;38.084;2022-11-20T08:40:38;16.48;;;5.70;;
53010;SDS011;42803;55.762;38.084;2022-11-20T08:43:07;17.08;;;7.10;;
53010;SDS011;42803;55.762;38.084;2022-11-20T08:45:36;12.30;;;5.85;;
53010;SDS011;42803;55.762;38.084;2022-11-20T08:48:05;11.27;;;5.45;;
53010;SDS011;42803;55.762;38.084;2022-11-20T08:50:34;11.60;;;5.55;;
53010;SDS011;42803;55.762;38.084;2022-11-20T08:53:04;15.07;;;6.82;;
53010;SDS011;42803;55.762;38.084;2022-11-20T08:55:34;14.20;;;6.38;;
53010;SDS011;42803;55.762;38.084;2022-11-20T08:58:03;13.57;;;6.35;;
53010;SDS011;42803;55.762;38.084;2022-11-20T09:00:33;15.57;;;7.28;;
53010;SDS011;42803;55.762;38.084;2022-11-20T09:03:02;13.23;;;6.78;;
53010;SDS011;42803;55.762;38.084;2022-11-20T09:05:31;13.93;;;5.85;;
53010;SDS011;42803;55.762;38.084;2022-11-20T09:08:01;15.07;;;6.00;;
53010;SDS011;42803;55.762;38.084;2022-11-20T09:10:32;16.48;;;7.15;;
53010;SDS011;42803;55.762;38.084;2022-11-20T09:13:01;18.00;;;7.35;;
53010;SDS011;42803;55.762;38.084;2022-11-20T09:15:31;12.13;;;6.63;;
53010;SDS011;42803;55.762;38.084;2022-11-20T09:18:02;16.02;;;6.68;;
53010;SDS011;42803;55.762;38.084;2022-11-20T09:20:32;15.30;;;6.90;;
53010;SDS011;42803;55.762;38.084;2022-11-20T09:23:00;14.88;;;6.28;;
53010;SDS011;42803;55.762;38.084;2022-11-20T09:25:29;15.77;;;6.93;;
53010;SDS011;42803;55.762;38.084;2022-11-20T09:28:00;17.17;;;7.25;;
53010;SDS011;42803;55.762;38.084;2022-11-20T09:30:29;15.20;;;7.38;;
53010;SDS011;42803;55.762;38.084;2022-11-20T09:32:58;16.92;;;8.00;;
53010;SDS011;42803;55.762;38.084;2022-11-20T09:35:27;16.98;;;7.47;;
53010;SDS011;42803;55.762;38.084;2022-11-20T09:37:56;16.02;;;6.38;;
53010;SDS011;42803;55.762;38.084;2022-11-20T09:40:26;17.60;;;7.00;;
53010;SDS011;42803;55.762;38.084;2022-11-20T09:42:58;14.73;;;6.93;;
53010;SDS011;42803;55.762;38.084;2022-11-20T09:45:37;14.65;;;6.82;;
53010;SDS011;42803;55.762;38.084;2022-11-20T09:48:18;17.27;;;7.10;;
53010;SDS011;42803;55.762;38.084;2022-11-20T09:50:57;12.30;;;6.78;;
53010;SDS011;42803;55.762;38.084;2022-11-20T09:53:35;15.23;;;7.05;;
53010;SDS011;42803;55.762;38.084;2022-11-20T09:56:11;12.45;;;6.03;;
53010;SDS011;42803;55.762;38.084;2022-11-20T09:58:49;13.63;;;6.47;;
53010;SDS011;42803;55.762;38.084;2022-11-20T10:01:22;14.32;;;6.45;;
53010;SDS011;42803;55.762;38.084;2022-11-20T10:03:56;12.50;;;6.35;;
53010;SDS011;42803;55.762;38.084;2022-11-20T10:06:30;16.10;;;7.25;;
53010;SDS011;42803;55.762;38.084;2022-11-20T10:09:06;14.45;;;6.90;;
53010;SDS011;42803;55.762;38.084;2022-11-20T10:11:48;17.98;;;7.13;;
53010;SDS011;42803;55.762;38.084;2022-11-20T10:14:29;20.42;;;8.00;;
53010;SDS011;42803;55.762;38.084;2022-11-20T10:17:10;15.15;;;7.82;;
53010;SDS011;42803;55.762;38.084;2022-11-20T10:19:55;17.42;;;8.05;;
53010;SDS011;42803;55.762;38.084;2022-11-20T10:22:42;15.90;;;7.68;;
53010;SDS011;42803;55.762;38.084;2022-11-20T10:25:34;14.27;;;6.82;;
53010;SDS011;42803;55.762;38.084;2022-11-20T10:28:19;13.10;;;7.10;;
53010;SDS011;42803;55.762;38.084;2022-11-20T10:30:59;19.40;;;6.78;;
53010;SDS011;42803;55.762;38.084;2022-11-20T10:33:32;15.55;;;7.35;;
53010;SDS011;42803;55.762;38.084;2022-11-20T10:36:25;15.93;;;7.55;;
53010;SDS011;42803;55.762;38.084;2022-11-20T10:38:57;17.75;;;7.88;;
53010;SDS011;42803;55.762;38.084;2022-11-20T10:41:34;19.08;;;8.25;;
53010;SDS011;42803;55.762;38.084;2022-11-20T10:44:09;17.92;;;8.05;;
53010;SDS011;42803;55.762;38.084;2022-11-20T10:49:34;17.98;;;7.80;;
53010;SDS011;42803;55.762;38.084;2022-11-20T10:52:05;15.70;;;7.88;;
53010;SDS011;42803;55.762;38.084;2022-11-20T10:54:43;19.90;;;8.13;;
53010;SDS011;42803;55.762;38.084;2022-11-20T10:57:22;18.33;;;7.45;;
53010;SDS011;42803;55.762;38.084;2022-11-20T11:00:04;21.05;;;8.35;;
53010;SDS011;42803;55.762;38.084;2022-11-20T11:02:39;16.42;;;7.68;;
53010;SDS011;42803;55.762;38.084;2022-11-20T11:05:12;18.20;;;7.95;;
53010;SDS011;42803;55.762;38.084;2022-11-20T11:07:52;17.02;;;7.45;;
53010;SDS011;42803;55.762;38.084;2022-11-20T11:10:26;17.67;;;8.00;;
53010;SDS011;42803;55.762;38.084;2022-11-20T11:13:01;18.33;;;7.97;;
53010;SDS011;42803;55.762;38.084;2022-11-20T11:15:36;22.48;;;8.75;;
53010;SDS011;42803;55.762;38.084;2022-11-20T11:18:09;17.83;;;8.65;;
53010;SDS011;42803;55.762;38.084;2022-11-20T11:20:39;18.85;;;8.48;;
53010;SDS011;42803;55.762;38.084;2022-11-20T11:23:28;21.55;;;8.57;;
53010;SDS011;42803;55.762;38.084;2022-11-20T11:26:00;24.23;;;9.68;;
53010;SDS011;42803;55.762;38.084;2022-11-20T11:28:30;24.23;;;9.70;;
53010;SDS011;42803;55.762;38.084;2022-11-20T11:31:00;21.02;;;8.63;;
53010;SDS011;42803;55.762;38.084;2022-11-20T11:33:32;24.27;;;8.90;;
53010;SDS011;42803;55.762;38.084;2022-11-20T11:36:02;28.80;;;9.48;;
53010;SDS011;42803;55.762;38.084;2022-11-20T11:38:42;27.98;;;9.15;;
53010;SDS011;42803;55.762;38.084;2022-11-20T11:41:14;21.77;;;9.07;;
53010;SDS011;42803;55.762;38.084;2022-11-20T11:43:49;22.63;;;8.95;;
53010;SDS011;42803;55.762;38.084;2022-11-20T11:46:38;28.15;;;9.65;;
53010;SDS011;42803;55.762;38.084;2022-11-20T11:49:15;28.35;;;9.40;;
53010;SDS011;42803;55.762;38.084;2022-11-20T11:51:50;29.55;;;11.07;;
53010;SDS011;42803;55.762;38.084;2022-11-20T11:54:34;30.38;;;10.30;;
53010;SDS011;42803;55.762;38.084;2022-11-20T11:57:11;29.40;;;8.82;;
53010;SDS011;42803;55.762;38.084;2022-11-20T11:59:49;35.75;;;11.95;;
53010;SDS011;42803;55.762;38.084;2022-11-20T12:02:29;27.05;;;8.60;;
53010;SDS011;42803;55.762;38.084;2022-11-20T12:05:09;26.90;;;10.25;;
53010;SDS011;42803;55.762;38.084;2022-11-20T12:07:46;31.42;;;10.35;;
53010;SDS011;42803;55.762;38.084;2022-11-20T12:10:21;28.50;;;10.52;;
53010;SDS011;42803;55.762;38.084;2022-11-20T12:12:58;37.55;;;12.80;;
53010;SDS011;42803;55.762;38.084;2022-11-20T12:15:32;23.23;;;9.80;;
53010;SDS011;42803;55.762;38.084;2022-11-20T12:18:04;29.25;;;9.63;;
53010;SDS011;42803;55.762;38.084;2022-11-20T12:20:41;33.97;;;10.38;;
53010;SDS011;42803;55.762;38.084;2022-11-20T12:23:17;31.50;;;10.68;;
53010;SDS011;42803;55.762;38.084;2022-11-20T12:25:55;33.35;;;11.00;;
53010;SDS011;42803;55.762;38.084;2022-11-20T12:28:34;28.10;;;10.05;;
53010;SDS011;42803;55.762;38.084;2022-11-20T12:31:21;31.88;;;10.80;;
53010;SDS011;42803;55.762;38.084;2022-11-20T12:34:09;30.80;;;10.38;;
53010;SDS011;42803;55.762;38.084;2022-11-20T12:36:54;31.95;;;10.35;;
53010;SDS011;42803;55.762;38.084;2022-11-20T12:39:35;27.20;;;10.23;;
53010;SDS011;42803;55.762;38.084;2022-11-20T12:42:23;34.00;;;10.75;;
53010;SDS011;42803;55.762;38.084;2022-11-20T12:45:42;26.55;;;9.63;;
53010;SDS011;42803;55.762;38.084;2022-11-20T12:48:29;42.47;;;10.23;;
53010;SDS011;42803;55.762;38.084;2022-11-20T12:53:59;40.67;;;12.25;;
53010;SDS011;42803;55.762;38.084;2022-11-20T12:56:41;38.33;;;12.50;;
53010;SDS011;42803;55.762;38.084;2022-11-20T12:59:23;33.55;;;13.13;;
53010;SDS011;42803;55.762;38.084;2022-11-20T13:02:03;33.10;;;12.35;;
53010;SDS011;42803;55.762;38.084;2022-11-20T13:04:54;31.55;;;11.50;;
53010;SDS011;42803;55.762;38.084;2022-11-20T13:07:34;29.33;;;11.23;;
53010;SDS011;42803;55.762;38.084;2022-11-20T13:10:06;37.55;;;11.88;;
53010;SDS011;42803;55.762;38.084;2022-11-20T13:12:48;37.97;;;11.57;;
53010;SDS011;42803;55.762;38.084;2022-11-20T13:15:35;30.58;;;11.43;;
53010;SDS011;42803;55.762;38.084;2022-11-20T13:18:12;29.63;;;10.90;;
53010;SDS011;42803;55.762;38.084;2022-11-20T13:20:43;30.27;;;10.77;;
53010;SDS011;42803;55.762;38.084;2022-11-20T13:23:22;26.85;;;10.40;;
53010;SDS011;42803;55.762;38.084;2022-11-20T13:26:04;31.85;;;10.93;;
53010;SDS011;42803;55.762;38.084;2022-11-20T13:28:34;30.83;;;10.30;;
53010;SDS011;42803;55.762;38.084;2022-11-20T13:31:04;28.13;;;10.70;;
53010;SDS011;42803;55.762;38.084;2022-11-20T13:33:34;24.20;;;9.55;;
53010;SDS011;42803;55.762;38.084;2022-11-20T13:36:06;34.67;;;10.80;;
53010;SDS011;42803;55.762;38.084;2022-11-20T13:38:43;25.77;;;9.95;;
53010;SDS011;42803;55.762;38.084;2022-11-20T13:41:24;26.00;;;9.60;;
53010;SDS011;42803;55.762;38.084;2022-11-20T13:43:59;33.22;;;11.85;;
53010;SDS011;42803;55.762;38.084;2022-11-20T13:46:39;28.38;;;9.60;;
53010;SDS011;42803;55.762;38.084;2022-11-20T13:49:16;36.55;;;12.27;;
53010;SDS011;42803;55.762;38.084;2022-11-20T13:51:50;33.25;;;9.88;;
53010;SDS011;42803;55.762;38.084;2022-11-20T13:54:32;39.08;;;10.52;;
53010;SDS011;42803;55.762;38.084;2022-11-20T13:57:51;35.58;;;9.07;;
53010;SDS011;42803;55.762;38.084;2022-11-20T14:00:31;32.92;;;10.48;;
53010;SDS011;42803;55.762;38.084;2022-11-20T14:03:02;27.23;;;9.35;;
53010;SDS011;42803;55.762;38.084;2022-11-20T14:05:39;33.33;;;9.85;;
53010;SDS011;42803;55.762;38.084;2022-11-20T14:08:20;35.03;;;11.23;;
53010;SDS011;42803;55.762;38.084;2022-11-20T14:11:03;30.95;;;11.20;;
53010;SDS011;42803;55.762;38.084;2022-11-20T14:13:35;40.58;;;11.57;;
53010;SDS011;42803;55.762;38.084;2022-11-20T14:16:04;41.13;;;11.25;;
53010;SDS011;42803;55.762;38.084;2022-11-20T14:18:33;36.33;;;11.90;;
53010;SDS011;42803;55.762;38.084;2022-11-20T14:21:03;34.70;;;11.82;;
53010;SDS011;42803;55.762;38.084;2022-11-20T14:23:32;41.33;;;10.73;;
53010;SDS011;42803;55.762;38.084;2022-11-20T14:26:01;34.97;;;11.30;;
53010;SDS011;42803;55.762;38.084;2022-11-20T14:28:30;31.13;;;11.07;;
53010;SDS011;42803;55.762;38.084;2022-11-20T14:31:01;42.63;;;13.20;;
53010;SDS011;42803;55.762;38.084;2022-11-20T14:33:30;46.75;;;12.13;;
53010;SDS011;42803;55.762;38.084;2022-11-20T14:36:02;38.25;;;12.45;;
53010;SDS011;42803;55.762;38.084;2022-11-20T14:38:32;41.63;;;13.07;;
53010;SDS011;42803;55.762;38.084;2022-11-20T14:41:08;49.55;;;12.52;;
53010;SDS011;42803;55.762;38.084;2022-11-20T14:43:46;37.13;;;12.27;;
53010;SDS011;42803;55.762;38.084;2022-11-20T14:46:21;26.83;;;11.05;;
53010;SDS011;42803;55.762;38.084;2022-11-20T14:48:51;38.60;;;12.13;;
53010;SDS011;42803;55.762;38.084;2022-11-20T14:51:26;38.53;;;11.57;;
53010;SDS011;42803;55.762;38.084;2022-11-20T14:56:53;38.03;;;11.48;;
53010;SDS011;42803;55.762;38.084;2022-11-20T14:59:24;32.88;;;11.55;;
53010;SDS011;42803;55.762;38.084;2022-11-20T15:01:56;36.15;;;12.38;;